Time;durP1;ratioP1;P1;durP2;ratioP2;P2;SDS_P1;SDS_P2;PMS_P1;PMS_P2;Temp;Humidity;BMP_temperature;BMP_pressure;BME280_temperature;BME280_humidity;BME280_pressure;Samples;Min_cycle;Max_cycle;Signal;HPM_P1;HPM_P2
2021/09/29 00:01:13;;;;;;;31.77;21.53;;;17.20;99.90;;;;;;5093843;28;20602;-64
2021/09/29 00:03:38;;;;;;;31.70;21.73;;;17.20;99.90;;;;;;5093678;28;20237;-64
2021/09/29 00:06:05;;;;;;;30.87;22.70;;;17.10;99.90;;;;;;5093754;28;20172;-65
2021/09/29 00:08:30;;;;;;;29.13;21.10;;;17.10;99.90;;;;;;5075389;28;20227;-64
2021/09/29 00:10:56;;;;;;;24.37;17.67;;;17.10;99.90;;;;;;5093698;28;20762;-64
2021/09/29 00:13:24;;;;;;;23.50;19.50;;;17.10;99.90;;;;;;5093621;28;20172;-64
2021/09/29 00:15:51;;;;;;;23.83;17.57;;;17.10;99.90;;;;;;5093509;28;20169;-64
2021/09/29 00:18:17;;;;;;;20.40;16.80;;;17.10;99.90;;;;;;5056875;28;20481;-66
2021/09/29 00:20:43;;;;;;;25.60;18.27;;;17.00;99.90;;;;;;5053249;28;20423;-66
2021/09/29 00:23:09;;;;;;;22.70;17.60;;;17.00;99.90;;;;;;5053289;28;20407;-65
2021/09/29 00:25:34;;;;;;;24.83;20.37;;;17.00;99.90;;;;;;5051949;28;20181;-64
2021/09/29 00:28:02;;;;;;;22.43;17.97;;;17.00;99.90;;;;;;5053137;28;20218;-64
2021/09/29 00:30:31;;;;;;;27.40;19.93;;;17.00;99.90;;;;;;5053022;28;20200;-66
2021/09/29 00:33:01;;;;;;;27.10;19.37;;;16.90;99.90;;;;;;5055642;28;20410;-64
2021/09/29 00:35:27;;;;;;;24.23;18.97;;;16.90;99.90;;;;;;5055514;28;20431;-66
2021/09/29 00:37:52;;;;;;;24.03;18.77;;;16.90;99.90;;;;;;5056987;28;20421;-65
2021/09/29 00:40:18;;;;;;;25.60;20.07;;;16.90;99.90;;;;;;5056844;28;20197;-66
2021/09/29 00:42:44;;;;;;;27.40;21.20;;;16.90;99.90;;;;;;5057362;28;20182;-65
2021/09/29 00:45:10;;;;;;;28.93;21.90;;;16.90;99.90;;;;;;5056791;28;20221;-64
2021/09/29 00:47:36;;;;;;;27.50;21.00;;;16.80;99.90;;;;;;5055714;28;20236;-65
2021/09/29 00:50:04;;;;;;;29.70;20.60;;;16.90;99.90;;;;;;5055358;28;21038;-65
2021/09/29 00:52:31;;;;;;;30.80;21.03;;;16.80;99.90;;;;;;5057260;28;20429;-65
2021/09/29 00:54:57;;;;;;;28.23;21.60;;;16.90;99.90;;;;;;5056544;28;20427;-64
2021/09/29 00:57:22;;;;;;;27.43;19.97;;;16.80;99.90;;;;;;5055539;28;20423;-64
2021/09/29 00:59:48;;;;;;;28.53;22.30;;;16.80;99.90;;;;;;5056447;28;20249;-64
2021/09/29 01:02:14;;;;;;;34.57;22.93;;;16.80;99.90;;;;;;5056931;28;20214;-64
2021/09/29 01:04:40;;;;;;;27.30;21.03;;;16.80;99.90;;;;;;5056443;28;20989;-65
2021/09/29 01:07:33;;;;;;;28.70;21.90;;;16.90;99.90;;;;;;5056287;28;20300;-65
2021/09/29 01:10:02;;;;;;;32.17;22.03;;;16.90;99.90;;;;;;5056377;28;20194;-64
2021/09/29 01:12:42;;;;;;;27.60;22.10;;;16.90;99.90;;;;;;5056810;28;20423;-66
2021/09/29 01:15:15;;;;;;;28.10;21.80;;;16.90;99.90;;;;;;5056284;28;20523;-63
2021/09/29 01:17:45;;;;;;;28.27;22.10;;;16.90;99.90;;;;;;5054918;28;20995;-64
2021/09/29 01:20:12;;;;;;;26.70;21.07;;;17.00;99.90;;;;;;5056157;28;20994;-64
2021/09/29 01:22:41;;;;;;;28.67;21.60;;;17.00;99.90;;;;;;5055141;28;20498;-64
2021/09/29 01:25:28;;;;;;;28.73;21.20;;;17.00;99.90;;;;;;5056037;28;20427;-65
2021/09/29 01:27:57;;;;;;;29.47;21.27;;;17.00;99.90;;;;;;5054695;28;20466;-64
2021/09/29 01:30:23;;;;;;;31.40;23.43;;;17.00;99.90;;;;;;5055979;28;20414;-63
2021/09/29 01:32:49;;;;;;;34.33;24.40;;;17.00;99.90;;;;;;5055899;28;20473;-66
2021/09/29 01:35:16;;;;;;;37.43;23.20;;;17.10;99.90;;;;;;5055851;28;20817;-64
2021/09/29 01:37:43;;;;;;;31.27;24.67;;;17.10;99.90;;;;;;5054753;28;20438;-65
2021/09/29 01:40:11;;;;;;;33.70;24.13;;;17.10;99.90;;;;;;5054438;28;20512;-64
2021/09/29 01:42:37;;;;;;;31.70;24.10;;;17.10;99.90;;;;;;5056074;28;20510;-64
2021/09/29 01:45:03;;;;;;;33.30;23.50;;;17.10;99.90;;;;;;5055641;28;20443;-65
2021/09/29 01:47:28;;;;;;;30.83;23.07;;;17.10;99.90;;;;;;5056131;28;20218;-66
2021/09/29 01:50:00;;;;;;;34.63;24.90;;;17.10;99.90;;;;;;5054280;28;20853;-64
2021/09/29 01:52:30;;;;;;;35.17;24.20;;;17.20;99.90;;;;;;5055993;28;20257;-66
2021/09/29 01:54:56;;;;;;;34.57;25.33;;;17.20;99.90;;;;;;5055489;28;20434;-65
2021/09/29 01:57:23;;;;;;;32.07;24.00;;;17.20;99.90;;;;;;5054161;28;20415;-64
2021/09/29 01:59:49;;;;;;;34.73;25.30;;;17.30;99.90;;;;;;5055398;28;20431;-67
2021/09/29 02:02:15;;;;;;;34.93;25.30;;;17.20;99.90;;;;;;5054274;28;21010;-64
2021/09/29 02:04:45;;;;;;;31.23;23.10;;;17.20;99.90;;;;;;5055255;28;20480;-63
2021/09/29 02:07:11;;;;;;;35.97;25.37;;;17.30;99.90;;;;;;5055318;28;20821;-64
2021/09/29 02:09:36;;;;;;;34.17;24.27;;;17.30;99.90;;;;;;5055213;28;20419;-63
2021/09/29 02:12:02;;;;;;;35.00;23.87;;;17.30;99.90;;;;;;5053994;28;20782;-65
2021/09/29 02:14:28;;;;;;;37.40;25.90;;;17.30;99.90;;;;;;5055139;28;20194;-64
2021/09/29 02:16:55;;;;;;;33.20;23.83;;;17.30;99.90;;;;;;5062546;28;20229;-66
2021/09/29 02:19:21;;;;;;;42.33;26.87;;;17.30;99.90;;;;;;5095153;28;20196;-65
2021/09/29 02:21:47;;;;;;;36.90;25.70;;;17.30;99.90;;;;;;5095473;28;20924;-65
2021/09/29 02:24:13;;;;;;;34.03;23.90;;;17.30;99.90;;;;;;5095115;28;20428;-65
2021/09/29 02:26:39;;;;;;;30.27;23.30;;;17.30;99.90;;;;;;5076984;28;20212;-64
2021/09/29 02:29:06;;;;;;;31.80;24.00;;;17.30;99.90;;;;;;5094935;28;20747;-65
2021/09/29 02:31:33;;;;;;;36.00;25.80;;;17.40;99.90;;;;;;5094963;28;20172;-65
2021/09/29 02:33:59;;;;;;;37.53;25.13;;;17.40;99.90;;;;;;5094941;28;20433;-65
2021/09/29 02:36:25;;;;;;;35.60;23.00;;;17.40;99.90;;;;;;5076933;28;20945;-66
2021/09/29 02:38:51;;;;;;;31.30;22.13;;;17.40;99.90;;;;;;5094823;28;20530;-66
2021/09/29 02:41:18;;;;;;;32.00;22.87;;;17.40;99.90;;;;;;5076743;28;20183;-64
2021/09/29 02:43:44;;;;;;;31.93;23.20;;;17.40;99.90;;;;;;5076528;28;20445;-65
2021/09/29 02:46:09;;;;;;;30.70;21.23;;;17.40;99.90;;;;;;5094993;28;20405;-64
2021/09/29 02:48:35;;;;;;;28.27;22.47;;;17.30;99.90;;;;;;5094631;28;20233;-65
2021/09/29 02:51:01;;;;;;;24.60;19.73;;;17.30;99.90;;;;;;5094744;28;20168;-63
2021/09/29 02:53:30;;;;;;;32.67;21.13;;;17.30;99.90;;;;;;5076393;28;20201;-65
2021/09/29 02:55:57;;;;;;;31.50;20.90;;;17.20;99.90;;;;;;5075792;28;20169;-65
2021/09/29 02:58:23;;;;;;;27.20;21.07;;;17.20;99.90;;;;;;5094618;28;20452;-63
2021/09/29 03:00:51;;;;;;;32.33;22.70;;;17.20;99.90;;;;;;5076344;28;20409;-63
2021/09/29 03:03:17;;;;;;;35.40;23.07;;;17.20;99.90;;;;;;5076170;28;20852;-65
2021/09/29 03:05:43;;;;;;;29.80;22.07;;;17.20;99.90;;;;;;5094476;28;20456;-65
2021/09/29 03:08:08;;;;;;;28.60;20.93;;;17.10;99.90;;;;;;5076072;28;20988;-65
2021/09/29 03:10:35;;;;;;;30.57;22.77;;;17.10;99.90;;;;;;5094335;28;20180;-65
2021/09/29 03:13:01;;;;;;;30.70;21.43;;;17.10;99.90;;;;;;5076085;28;20193;-66
2021/09/29 03:15:27;;;;;;;30.43;22.17;;;17.10;99.90;;;;;;5094082;28;20429;-65
2021/09/29 03:17:52;;;;;;;30.90;22.17;;;17.10;99.90;;;;;;5075973;28;20236;-64
2021/09/29 03:20:18;;;;;;;33.30;20.70;;;17.00;99.90;;;;;;5075948;28;20201;-65
2021/09/29 03:22:43;;;;;;;28.20;22.07;;;17.00;99.90;;;;;;5094733;28;20176;-65
2021/09/29 03:25:09;;;;;;;34.17;22.87;;;17.00;99.90;;;;;;5094074;28;20669;-66
2021/09/29 03:27:35;;;;;;;35.00;22.50;;;17.00;99.90;;;;;;5094347;28;20215;-66
2021/09/29 03:30:00;;;;;;;36.83;24.27;;;17.00;99.90;;;;;;5093955;28;20192;-64
2021/09/29 03:32:26;;;;;;;33.77;22.80;;;17.00;99.90;;;;;;5076077;28;20184;-64
2021/09/29 03:34:52;;;;;;;36.70;24.10;;;17.00;99.90;;;;;;5093897;28;20204;-66
2021/09/29 03:37:17;;;;;;;49.30;26.30;;;17.00;99.90;;;;;;5093851;28;20172;-64
2021/09/29 03:39:43;;;;;;;41.90;24.50;;;17.10;99.90;;;;;;5093815;28;20677;-64
2021/09/29 03:42:08;;;;;;;41.47;25.47;;;17.10;99.90;;;;;;5094319;28;20575;-64
2021/09/29 03:44:34;;;;;;;36.73;27.40;;;17.10;99.90;;;;;;5093843;28;20578;-66
2021/09/29 03:46:59;;;;;;;38.13;26.13;;;17.10;99.90;;;;;;5075773;28;20301;-63
2021/09/29 03:49:25;;;;;;;41.10;25.67;;;17.10;99.90;;;;;;5093774;28;20192;-65
2021/09/29 03:51:51;;;;;;;41.10;24.83;;;17.10;99.90;;;;;;5075739;28;20222;-64
2021/09/29 03:54:16;;;;;;;39.20;23.40;;;17.10;99.90;;;;;;5093765;28;20200;-63
2021/09/29 03:56:42;;;;;;;39.33;24.53;;;17.10;99.90;;;;;;5075687;28;20755;-64
2021/09/29 03:59:07;;;;;;;32.03;23.63;;;17.10;99.90;;;;;;5093677;28;20203;-65
2021/09/29 04:01:33;;;;;;;39.23;27.63;;;17.10;99.90;;;;;;5093687;28;20180;-66
2021/09/29 04:03:59;;;;;;;40.60;26.00;;;17.10;99.90;;;;;;5093564;28;20193;-64
2021/09/29 04:06:24;;;;;;;33.40;24.00;;;17.20;99.90;;;;;;5077279;28;20271;-64
2021/09/29 04:08:50;;;;;;;37.80;23.87;;;17.20;99.90;;;;;;5097645;28;20286;-64
2021/09/29 04:11:16;;;;;;;33.30;22.60;;;17.20;99.90;;;;;;5097592;28;20176;-65
2021/09/29 04:13:41;;;;;;;30.60;20.97;;;17.20;99.90;;;;;;5097668;28;20271;-64
2021/09/29 04:16:07;;;;;;;36.43;23.00;;;17.20;99.90;;;;;;5079480;28;20630;-64
2021/09/29 04:18:33;;;;;;;28.77;21.57;;;17.20;99.90;;;;;;5097555;28;20236;-66
2021/09/29 04:20:58;;;;;;;33.13;22.97;;;17.20;99.90;;;;;;5097570;28;20184;-65
2021/09/29 04:23:24;;;;;;;35.23;21.50;;;17.20;99.90;;;;;;5097528;28;20906;-64
2021/09/29 04:25:52;;;;;;;32.20;24.10;;;17.20;99.90;;;;;;5079303;28;20184;-64
2021/09/29 04:28:19;;;;;;;31.97;21.40;;;17.20;99.90;;;;;;5079172;28;20469;-64
2021/09/29 04:30:44;;;;;;;39.90;23.17;;;17.20;99.90;;;;;;5079277;28;20765;-65
2021/09/29 04:33:10;;;;;;;30.97;22.80;;;17.20;99.90;;;;;;5097318;28;20400;-64
2021/09/29 04:35:38;;;;;;;32.40;21.90;;;17.20;99.90;;;;;;5097210;28;20184;-65
2021/09/29 04:38:04;;;;;;;38.90;23.10;;;17.30;99.90;;;;;;5097191;28;20183;-64
2021/09/29 04:40:29;;;;;;;32.97;22.53;;;17.20;99.90;;;;;;5097010;28;20417;-65
2021/09/29 04:42:55;;;;;;;33.30;23.30;;;17.30;99.90;;;;;;5097082;28;20405;-66
2021/09/29 04:45:21;;;;;;;30.17;22.30;;;17.30;99.90;;;;;;5097062;28;20326;-64
2021/09/29 04:47:46;;;;;;;30.37;22.90;;;17.30;99.90;;;;;;5097456;28;20208;-66
2021/09/29 04:50:12;;;;;;;31.03;23.10;;;17.30;99.90;;;;;;5096850;28;20283;-65
2021/09/29 04:52:37;;;;;;;32.67;21.83;;;17.30;99.90;;;;;;5084179;28;20251;-64
2021/09/29 04:55:03;;;;;;;31.10;21.30;;;17.30;99.90;;;;;;5095177;28;20200;-64
2021/09/29 04:57:31;;;;;;;30.77;22.27;;;17.30;99.90;;;;;;5096480;28;20184;-66
2021/09/29 04:59:57;;;;;;;31.87;22.77;;;17.30;99.90;;;;;;5104243;28;20425;-64
2021/09/29 05:02:23;;;;;;;33.83;22.83;;;17.30;99.90;;;;;;5088572;28;20832;-64
2021/09/29 05:04:48;;;;;;;35.13;23.13;;;17.30;99.90;;;;;;5085599;28;20440;-65
2021/09/29 05:07:19;;;;;;;35.43;22.07;;;17.30;99.90;;;;;;5067620;28;20715;-65
2021/09/29 05:09:45;;;;;;;35.73;21.90;;;17.30;99.90;;;;;;5099965;28;20250;-64
2021/09/29 05:12:30;;;;;;;29.43;22.30;;;17.20;99.90;;;;;;5115231;28;20408;-64
2021/09/29 05:14:56;;;;;;;35.50;21.27;;;17.20;99.90;;;;;;5108967;28;20439;-65
2021/09/29 05:17:23;;;;;;;34.97;23.97;;;17.10;99.90;;;;;;5056520;28;20821;-65
2021/09/29 05:19:48;;;;;;;38.70;25.20;;;17.10;99.90;;;;;;5067493;28;20468;-66
2021/09/29 05:22:14;;;;;;;35.03;24.90;;;17.10;99.90;;;;;;5085274;28;20438;-66
2021/09/29 05:24:40;;;;;;;45.33;28.73;;;17.10;99.90;;;;;;5077091;28;20200;-65
2021/09/29 05:27:06;;;;;;;38.73;25.90;;;17.00;99.90;;;;;;5054556;28;20236;-65
2021/09/29 05:29:33;;;;;;;36.90;25.23;;;17.00;99.90;;;;;;5059785;28;20262;-67
2021/09/29 05:31:59;;;;;;;38.17;25.57;;;17.00;99.90;;;;;;5082706;28;20449;-65
2021/09/29 05:34:25;;;;;;;39.83;26.40;;;17.00;99.90;;;;;;5087443;28;20484;-65
2021/09/29 05:36:51;;;;;;;40.00;25.13;;;17.00;99.90;;;;;;5084441;28;20196;-66
2021/09/29 05:39:17;;;;;;;37.83;27.23;;;17.00;99.90;;;;;;5074423;28;20200;-66
2021/09/29 05:41:42;;;;;;;37.47;26.13;;;17.10;99.90;;;;;;5083453;28;20560;-67
2021/09/29 05:44:08;;;;;;;39.00;26.53;;;17.10;99.90;;;;;;5108159;28;20692;-66
2021/09/29 05:46:35;;;;;;;43.67;26.17;;;17.10;99.90;;;;;;5097596;28;20188;-65
2021/09/29 05:49:01;;;;;;;44.87;26.97;;;17.10;99.90;;;;;;5067579;28;20208;-64
2021/09/29 05:51:26;;;;;;;39.20;26.90;;;17.20;99.90;;;;;;5101354;28;20959;-65
2021/09/29 05:53:52;;;;;;;41.37;28.20;;;17.20;99.90;;;;;;5090057;28;20420;-66
2021/09/29 05:56:17;;;;;;;45.83;30.43;;;17.20;99.90;;;;;;5067817;28;20326;-65
2021/09/29 05:58:43;;;;;;;49.10;28.30;;;17.30;99.90;;;;;;5091019;28;20212;-64
2021/09/29 06:01:10;;;;;;;36.60;26.87;;;17.30;99.90;;;;;;5070114;28;20205;-64
2021/09/29 06:03:35;;;;;;;47.40;29.27;;;17.40;99.90;;;;;;5079869;28;20546;-65
2021/09/29 06:06:01;;;;;;;43.37;28.70;;;17.40;99.90;;;;;;5080827;28;20185;-65
2021/09/29 06:08:27;;;;;;;46.93;30.90;;;17.40;99.90;;;;;;5073312;28;20232;-64
2021/09/29 06:10:52;;;;;;;45.70;27.37;;;17.40;99.90;;;;;;5078785;28;20184;-65
2021/09/29 06:13:18;;;;;;;41.47;27.80;;;17.40;99.90;;;;;;5090004;28;20168;-64
2021/09/29 06:15:45;;;;;;;45.93;28.80;;;17.40;99.90;;;;;;5095284;28;20192;-64
2021/09/29 06:18:15;;;;;;;42.20;28.70;;;17.50;99.90;;;;;;5071452;28;20254;-66
2021/09/29 06:20:46;;;;;;;33.43;25.47;;;17.50;99.90;;;;;;5091668;28;20807;-65
2021/09/29 06:23:13;;;;;;;43.17;30.00;;;17.40;99.90;;;;;;5081721;28;20399;-64
2021/09/29 06:25:40;;;;;;;45.50;29.30;;;17.50;99.90;;;;;;5065229;28;20441;-65
2021/09/29 06:28:06;;;;;;;41.93;27.27;;;17.40;99.90;;;;;;5062182;28;20482;-64
2021/09/29 06:30:32;;;;;;;44.10;30.33;;;17.50;99.90;;;;;;5085289;28;20493;-67
2021/09/29 06:32:58;;;;;;;43.80;29.87;;;17.50;99.90;;;;;;5105385;28;20388;-65
2021/09/29 06:35:24;;;;;;;46.60;29.27;;;17.50;99.90;;;;;;5087674;28;20821;-64
2021/09/29 06:37:50;;;;;;;51.40;30.47;;;17.50;99.90;;;;;;5080883;28;20189;-65
2021/09/29 06:40:17;;;;;;;52.30;28.63;;;17.50;99.90;;;;;;5095938;28;20452;-66
2021/09/29 06:42:44;;;;;;;49.83;30.70;;;17.50;99.90;;;;;;5105330;28;20267;-64
2021/09/29 06:45:11;;;;;;;46.20;30.90;;;17.50;99.90;;;;;;5101294;28;20441;-64
2021/09/29 06:47:38;;;;;;;49.90;30.53;;;17.60;99.90;;;;;;5073858;28;20475;-64
2021/09/29 06:50:06;;;;;;;46.17;30.40;;;17.60;99.90;;;;;;5072454;28;20973;-66
2021/09/29 06:52:32;;;;;;;45.00;29.00;;;17.60;99.90;;;;;;5094324;28;20432;-66
2021/09/29 06:54:57;;;;;;;50.70;31.50;;;17.60;99.90;;;;;;5092289;28;20489;-66
2021/09/29 06:57:23;;;;;;;50.47;33.20;;;17.60;99.90;;;;;;5095954;28;20456;-64
2021/09/29 06:59:48;;;;;;;55.73;32.20;;;17.70;99.90;;;;;;5078791;28;20203;-64
2021/09/29 07:02:14;;;;;;;46.83;30.50;;;17.70;99.90;;;;;;5086909;28;20184;-65
2021/09/29 07:04:40;;;;;;;54.70;34.03;;;17.70;99.90;;;;;;5086447;28;20287;-65
2021/09/29 07:07:05;;;;;;;55.43;34.10;;;17.70;99.90;;;;;;5089262;28;20251;-64
2021/09/29 07:09:31;;;;;;;57.30;32.60;;;17.80;99.90;;;;;;5098156;28;20199;-66
2021/09/29 07:11:57;;;;;;;50.27;30.80;;;17.80;99.90;;;;;;5089819;28;20203;-66
2021/09/29 07:14:22;;;;;;;55.83;32.47;;;17.80;99.90;;;;;;5096862;28;20279;-65
2021/09/29 07:16:48;;;;;;;52.40;30.33;;;17.80;99.90;;;;;;5093240;28;20581;-66
2021/09/29 07:19:14;;;;;;;47.93;31.13;;;17.80;99.90;;;;;;5085906;28;20288;-65
2021/09/29 07:21:39;;;;;;;45.13;29.60;;;17.90;99.90;;;;;;5065168;28;20279;-65
2021/09/29 07:24:05;;;;;;;46.77;29.87;;;17.90;99.90;;;;;;5101621;28;20254;-66
2021/09/29 07:26:33;;;;;;;49.87;29.83;;;17.80;99.90;;;;;;5084059;28;20177;-65
2021/09/29 07:28:59;;;;;;;47.10;31.07;;;17.80;99.90;;;;;;5070214;28;20421;-67
2021/09/29 07:31:24;;;;;;;55.00;32.50;;;17.80;99.90;;;;;;5072919;28;20953;-66
2021/09/29 07:33:50;;;;;;;50.93;29.93;;;17.80;99.90;;;;;;5089188;28;20292;-67
2021/09/29 07:36:16;;;;;;;47.73;30.50;;;17.80;99.90;;;;;;5092834;28;20255;-66
2021/09/29 07:38:42;;;;;;;53.73;31.77;;;17.80;99.90;;;;;;5097996;28;20222;-66
2021/09/29 07:41:08;;;;;;;51.30;31.00;;;17.80;99.90;;;;;;5092079;28;20227;-67
2021/09/29 07:43:34;;;;;;;51.00;30.00;;;17.80;99.90;;;;;;5104001;28;20440;-66
2021/09/29 07:45:59;;;;;;;58.40;32.50;;;17.80;99.90;;;;;;5078116;28;20483;-66
2021/09/29 07:48:25;;;;;;;50.50;29.90;;;17.80;99.90;;;;;;5091321;28;20211;-65
2021/09/29 07:50:51;;;;;;;57.47;30.90;;;17.80;99.90;;;;;;5076392;28;20268;-66
2021/09/29 07:53:19;;;;;;;54.27;30.23;;;17.80;99.90;;;;;;5088458;28;20184;-67
2021/09/29 07:55:45;;;;;;;51.87;28.20;;;17.90;99.90;;;;;;5079062;28;20620;-65
2021/09/29 07:58:11;;;;;;;49.57;27.93;;;17.90;99.90;;;;;;5070179;28;20532;-66
2021/09/29 08:00:36;;;;;;;46.47;29.20;;;17.90;99.90;;;;;;5089838;28;20176;-67
2021/09/29 08:03:03;;;;;;;51.20;29.10;;;17.90;99.90;;;;;;5093616;28;20189;-67
2021/09/29 08:05:30;;;;;;;54.83;27.93;;;17.90;99.90;;;;;;5086111;28;20543;-67
2021/09/29 08:07:56;;;;;;;49.57;28.13;;;17.90;99.90;;;;;;5087532;28;20469;-66
2021/09/29 08:10:22;;;;;;;60.17;29.97;;;17.90;99.90;;;;;;5092514;28;20414;-66
2021/09/29 08:12:47;;;;;;;52.80;29.70;;;17.90;99.90;;;;;;5075596;28;20249;-68
2021/09/29 08:15:15;;;;;;;55.63;29.70;;;17.90;99.90;;;;;;5068688;28;20195;-65
2021/09/29 08:17:44;;;;;;;58.87;31.00;;;17.90;99.90;;;;;;5092313;28;20296;-67
2021/09/29 08:20:12;;;;;;;55.97;29.47;;;17.90;99.90;;;;;;5064868;28;20423;-64
2021/09/29 08:22:40;;;;;;;61.73;31.37;;;17.90;99.90;;;;;;5072023;28;20441;-65
2021/09/29 08:35:39;;;;;;;60.47;32.93;;;17.90;99.90;;;;;;5092135;28;20199;-67
2021/09/29 08:38:09;;;;;;;59.77;33.33;;;17.80;99.90;;;;;;5083966;28;20491;-67
2021/09/29 08:48:08;;;;;;;62.83;33.17;;;17.80;99.90;;;;;;5088227;28;20800;-67
2021/09/29 08:53:21;;;;;;;65.27;34.20;;;17.90;99.90;;;;;;5091712;28;20794;-68
2021/09/29 08:56:18;;;;;;;64.97;34.13;;;17.90;99.90;;;;;;5080777;28;20456;-66
2021/09/29 09:17:42;;;;;;;80.20;37.10;;;18.00;99.90;;;;;;5084569;28;20460;-64
2021/09/29 09:20:28;;;;;;;69.13;40.00;;;18.00;99.90;;;;;;5090613;28;20941;-65
2021/09/29 09:22:56;;;;;;;73.40;39.53;;;18.00;99.90;;;;;;5095081;28;20193;-64
2021/09/29 09:25:40;;;;;;;74.90;40.87;;;18.10;99.90;;;;;;5087585;28;20433;-66
2021/09/29 09:28:14;;;;;;;68.57;38.60;;;18.10;99.90;;;;;;5086089;28;20818;-66
2021/09/29 09:30:40;;;;;;;68.47;38.10;;;18.20;99.90;;;;;;5073438;28;20784;-65
2021/09/29 09:33:06;;;;;;;64.50;39.03;;;18.20;99.90;;;;;;5076331;28;20427;-64
2021/09/29 09:36:01;;;;;;;64.93;37.37;;;18.30;99.90;;;;;;5102100;28;20723;-67
2021/09/29 09:38:34;;;;;;;57.17;35.80;;;18.40;99.90;;;;;;5087801;28;20947;-64
2021/09/29 09:41:00;;;;;;;58.87;32.40;;;18.40;99.90;;;;;;5082191;28;20440;-64
2021/09/29 09:43:29;;;;;;;59.97;36.27;;;18.40;99.90;;;;;;5094496;28;20417;-64
2021/09/29 09:45:55;;;;;;;62.13;32.90;;;18.50;99.90;;;;;;5099260;28;20410;-64
2021/09/29 09:48:24;;;;;;;59.13;35.00;;;18.50;99.90;;;;;;5100442;28;20465;-64
2021/09/29 09:51:03;;;;;;;57.47;35.90;;;18.50;99.90;;;;;;5100062;28;20494;-64
2021/09/29 09:53:29;;;;;;;57.33;37.03;;;18.50;99.90;;;;;;5087916;28;20476;-67
2021/09/29 09:55:54;;;;;;;53.77;34.27;;;18.60;99.90;;;;;;5095616;28;20444;-64
2021/09/29 09:58:20;;;;;;;57.20;36.40;;;18.60;99.90;;;;;;5106546;28;20180;-64
2021/09/29 10:00:46;;;;;;;59.37;36.03;;;18.60;99.90;;;;;;5077976;28;20662;-66
2021/09/29 10:03:13;;;;;;;50.40;32.73;;;18.70;99.90;;;;;;5099561;28;20203;-64
2021/09/29 10:05:42;;;;;;;44.33;31.40;;;18.70;99.90;;;;;;5105087;28;20172;-64
2021/09/29 10:08:13;;;;;;;50.83;30.77;;;18.80;99.90;;;;;;5103239;28;20563;-66
2021/09/29 10:10:57;;;;;;;46.47;30.83;;;18.80;99.90;;;;;;5100624;28;20488;-65
2021/09/29 10:27:56;;;;;;;43.60;31.47;;;19.00;99.90;;;;;;5079816;28;21113;-64
2021/09/29 10:31:02;;;;;;;42.47;28.20;;;19.10;99.90;;;;;;5083995;28;20437;-66
2021/09/29 10:33:23;;;;;;;43.57;30.73;;;19.10;99.90;;;;;;5084481;28;20436;-66
2021/09/29 10:36:18;;;;;;;42.77;28.63;;;19.10;99.90;;;;;;5082570;28;21017;-65
2021/09/29 10:46:58;;;;;;;36.67;26.63;;;19.30;99.90;;;;;;5084431;28;20943;-65
2021/09/29 10:49:42;;;;;;;39.83;27.47;;;19.30;99.90;;;;;;5086350;28;20978;-66
2021/09/29 11:06:33;;;;;;;31.67;21.03;;;19.70;99.90;;;;;;5096285;28;20449;-65
2021/09/29 11:09:33;;;;;;;27.40;20.80;;;19.80;99.90;;;;;;5085032;28;20757;-66
2021/09/29 11:31:45;;;;;;;29.93;18.30;;;20.50;99.90;;;;;;5081446;28;20985;-66
2021/09/29 11:34:17;;;;;;;19.80;16.30;;;20.60;99.90;;;;;;5085279;28;20828;-68
2021/09/29 12:12:17;;;;;;;18.13;13.50;;;21.10;99.90;;;;;;5082667;28;20448;-64
2021/09/29 12:14:50;;;;;;;16.33;12.70;;;21.10;99.90;;;;;;5083472;28;20937;-66
2021/09/29 12:17:54;;;;;;;14.80;11.60;;;21.10;99.90;;;;;;5093245;28;20465;-67
2021/09/29 12:20:23;;;;;;;18.60;12.30;;;21.10;99.90;;;;;;5040914;28;20430;-65
2021/09/29 12:22:53;;;;;;;17.27;14.10;;;21.10;99.90;;;;;;5090007;28;20925;-64
2021/09/29 12:25:38;;;;;;;14.77;11.00;;;21.10;99.90;;;;;;5084438;28;20795;-65
2021/09/29 12:30:49;;;;;;;14.83;12.27;;;21.10;99.90;;;;;;5094835;28;20982;-64
2021/09/29 12:33:47;;;;;;;15.63;12.87;;;21.10;99.90;;;;;;5096419;28;20782;-66
2021/09/29 12:36:14;;;;;;;18.53;13.40;;;21.10;99.90;;;;;;5089883;28;20455;-66
2021/09/29 12:38:43;;;;;;;16.17;13.17;;;21.10;99.90;;;;;;5086608;28;20460;-65
2021/09/29 12:41:09;;;;;;;17.47;13.50;;;21.20;99.90;;;;;;5095569;28;20803;-64
2021/09/29 12:43:34;;;;;;;16.07;11.57;;;21.20;99.90;;;;;;5076022;28;20453;-64
2021/09/29 12:46:00;;;;;;;16.57;13.03;;;21.30;99.90;;;;;;5089085;28;20520;-66
2021/09/29 12:48:28;;;;;;;16.93;12.37;;;21.30;99.90;;;;;;5063709;28;20439;-66
2021/09/29 12:50:58;;;;;;;15.83;11.43;;;21.30;99.90;;;;;;5090842;28;20432;-66
2021/09/29 12:53:33;;;;;;;17.63;11.30;;;21.40;99.90;;;;;;5090598;28;20470;-66
2021/09/29 12:56:06;;;;;;;15.53;12.23;;;21.40;99.90;;;;;;5089307;28;20450;-67
2021/09/29 12:58:32;;;;;;;15.93;11.83;;;21.40;99.90;;;;;;5082379;28;20459;-67
2021/09/29 13:00:59;;;;;;;15.07;12.20;;;21.40;99.90;;;;;;5091242;28;20445;-66
2021/09/29 13:03:25;;;;;;;19.77;12.20;;;21.40;99.90;;;;;;5089028;28;20753;-65
2021/09/29 13:05:51;;;;;;;15.13;11.53;;;21.40;99.90;;;;;;5099215;28;20840;-64
2021/09/29 13:08:17;;;;;;;12.93;11.07;;;21.50;99.90;;;;;;5101050;28;20467;-64
2021/09/29 13:10:43;;;;;;;14.83;11.97;;;21.50;99.90;;;;;;5084146;28;20779;-67
2021/09/29 13:13:12;;;;;;;16.93;12.43;;;21.50;99.90;;;;;;5092928;28;20247;-66
2021/09/29 13:15:41;;;;;;;14.60;10.63;;;21.50;99.90;;;;;;5097078;28;20930;-64
2021/09/29 13:18:11;;;;;;;16.73;11.03;;;21.50;99.90;;;;;;5088957;28;20452;-64
2021/09/29 13:20:38;;;;;;;14.43;10.83;;;21.50;99.90;;;;;;5095700;28;20506;-64
2021/09/29 13:23:14;;;;;;;17.73;12.20;;;21.50;99.90;;;;;;5082162;28;20473;-66
2021/09/29 13:36:38;;;;;;;15.87;11.57;;;21.50;99.90;;;;;;5096698;28;20547;-64
2021/09/29 13:39:15;;;;;;;16.20;11.57;;;21.50;99.90;;;;;;5089483;28;20992;-64
2021/09/29 13:41:42;;;;;;;16.50;11.67;;;21.50;99.90;;;;;;5100071;28;20462;-65
2021/09/29 13:44:09;;;;;;;15.50;11.50;;;21.50;99.90;;;;;;5087225;28;20428;-65
2021/09/29 13:46:35;;;;;;;14.40;9.80;;;21.50;99.90;;;;;;5102636;28;20451;-66
2021/09/29 13:49:03;;;;;;;17.60;11.47;;;21.50;99.90;;;;;;5089769;28;20484;-66
2021/09/29 13:51:30;;;;;;;14.30;10.80;;;21.50;99.90;;;;;;5087801;28;20434;-64
2021/09/29 13:53:56;;;;;;;13.37;10.80;;;21.40;99.90;;;;;;5094351;28;20792;-66
2021/09/29 13:56:31;;;;;;;18.27;10.70;;;21.40;99.90;;;;;;5095320;28;20453;-63
2021/09/29 13:59:18;;;;;;;14.60;9.60;;;21.40;99.90;;;;;;5093257;28;20442;-67
2021/09/29 14:34:14;;;;;;;17.20;12.47;;;20.90;99.90;;;;;;5087959;28;20782;-65
2021/09/29 14:36:41;;;;;;;17.03;11.40;;;20.90;99.90;;;;;;5095143;28;20933;-64
2021/09/29 14:39:06;;;;;;;17.63;11.17;;;20.80;99.90;;;;;;5097423;28;20519;-64
2021/09/29 14:41:32;;;;;;;14.37;11.67;;;20.90;99.90;;;;;;5097999;28;21088;-64
2021/09/29 14:43:58;;;;;;;13.27;9.77;;;20.80;99.90;;;;;;5081932;28;20222;-64
2021/09/29 14:46:24;;;;;;;15.50;9.90;;;20.80;99.90;;;;;;5083947;28;20432;-65
2021/09/29 14:48:50;;;;;;;13.70;9.33;;;20.80;99.90;;;;;;5102311;28;20227;-66
2021/09/29 14:51:15;;;;;;;17.03;10.33;;;20.80;99.90;;;;;;5105007;28;20795;-64
2021/09/29 14:53:41;;;;;;;11.77;9.53;;;20.80;99.90;;;;;;5094662;28;20203;-64
2021/09/29 14:56:08;;;;;;;11.30;9.10;;;20.80;99.90;;;;;;5084016;28;20241;-66
2021/09/29 14:58:36;;;;;;;10.13;8.90;;;20.70;99.90;;;;;;5092257;28;20203;-64
2021/09/29 15:01:02;;;;;;;12.17;8.00;;;20.70;99.90;;;;;;5096409;28;20501;-65
2021/09/29 15:03:28;;;;;;;10.77;8.20;;;20.60;99.90;;;;;;5102157;28;20405;-67
2021/09/29 15:05:54;;;;;;;12.77;8.50;;;20.60;99.90;;;;;;5104793;28;20434;-66
2021/09/29 15:08:21;;;;;;;13.93;8.07;;;20.60;99.90;;;;;;5094203;28;20867;-67
2021/09/29 15:10:46;;;;;;;10.47;7.63;;;20.60;99.90;;;;;;5088590;28;20412;-66
2021/09/29 15:13:14;;;;;;;6.87;6.10;;;20.60;99.90;;;;;;5087820;28;20413;-64
2021/09/29 15:15:56;;;;;;;6.67;5.27;;;20.60;99.90;;;;;;5069947;28;20179;-66
2021/09/29 15:18:27;;;;;;;6.60;5.30;;;20.50;99.90;;;;;;5087488;28;20434;-64
2021/09/29 15:31:21;;;;;;;7.87;5.00;;;20.30;99.90;;;;;;5089660;28;20488;-65
2021/09/29 15:50:17;;;;;;;8.67;5.27;;;19.90;99.90;;;;;;5092734;28;20435;-65
2021/09/29 16:00:54;;;;;;;5.93;5.30;;;19.70;99.90;;;;;;5093924;28;20428;-65
2021/09/29 16:03:01;;;;;;;6.13;5.27;;;19.70;99.90;;;;;;5085368;28;20203;-65
2021/09/29 16:11:11;;;;;;;6.20;4.83;;;19.50;99.90;;;;;;5097960;28;20743;-64